sensor_id;sensor_type;location;lat;lon;timestamp;temperature;humidity
19017;DHT22;9641;51.494;6.670;2024-01-30T00:02:18;9.00;99.90
19017;DHT22;9641;51.494;6.670;2024-01-30T00:04:45;9.00;99.90
19017;DHT22;9641;51.494;6.670;2024-01-30T00:07:12;9.00;99.90
19017;DHT22;9641;51.494;6.670;2024-01-30T00:09:39;8.90;99.90
19017;DHT22;9641;51.494;6.670;2024-01-30T00:12:10;8.90;99.90
19017;DHT22;9641;51.494;6.670;2024-01-30T00:14:37;8.90;99.90
19017;DHT22;9641;51.494;6.670;2024-01-30T00:17:04;8.90;99.90
19017;DHT22;9641;51.494;6.670;2024-01-30T00:19:33;8.80;99.90
19017;DHT22;9641;51.494;6.670;2024-01-30T00:22:04;8.80;99.90
19017;DHT22;9641;51.494;6.670;2024-01-30T00:24:31;8.80;99.90
19017;DHT22;9641;51.494;6.670;2024-01-30T00:26:58;8.70;99.90
19017;DHT22;9641;51.494;6.670;2024-01-30T00:29:25;8.60;99.90
19017;DHT22;9641;51.494;6.670;2024-01-30T00:31:56;8.50;99.90
19017;DHT22;9641;51.494;6.670;2024-01-30T00:34:26;8.60;99.90
19017;DHT22;9641;51.494;6.670;2024-01-30T00:36:54;8.60;99.90
19017;DHT22;9641;51.494;6.670;2024-01-30T00:39:21;8.60;99.90
19017;DHT22;9641;51.494;6.670;2024-01-30T00:41:48;8.50;99.90
19017;DHT22;9641;51.494;6.670;2024-01-30T00:44:15;8.40;99.90
19017;DHT22;9641;51.494;6.670;2024-01-30T00:46:42;8.30;99.90
19017;DHT22;9641;51.494;6.670;2024-01-30T00:49:10;8.30;99.90
19017;DHT22;9641;51.494;6.670;2024-01-30T00:51:37;8.30;99.90
19017;DHT22;9641;51.494;6.670;2024-01-30T00:54:05;8.40;99.90
19017;DHT22;9641;51.494;6.670;2024-01-30T00:56:33;8.30;99.90
19017;DHT22;9641;51.494;6.670;2024-01-30T00:59:00;8.30;99.90
19017;DHT22;9641;51.494;6.670;2024-01-30T01:01:27;8.40;99.90
19017;DHT22;9641;51.494;6.670;2024-01-30T01:03:54;8.40;99.90
19017;DHT22;9641;51.494;6.670;2024-01-30T01:06:21;8.40;99.90
19017;DHT22;9641;51.494;6.670;2024-01-30T01:08:48;8.40;99.90
19017;DHT22;9641;51.494;6.670;2024-01-30T01:11:16;8.40;99.90
19017;DHT22;9641;51.494;6.670;2024-01-30T01:13:43;8.50;99.90
19017;DHT22;9641;51.494;6.670;2024-01-30T01:16:10;8.50;99.90
19017;DHT22;9641;51.494;6.670;2024-01-30T01:18:36;8.50;99.90
19017;DHT22;9641;51.494;6.670;2024-01-30T01:21:04;8.60;99.90
19017;DHT22;9641;51.494;6.670;2024-01-30T01:23:31;8.60;99.90
19017;DHT22;9641;51.494;6.670;2024-01-30T01:25:58;8.60;99.90
19017;DHT22;9641;51.494;6.670;2024-01-30T01:28:28;8.60;99.90
19017;DHT22;9641;51.494;6.670;2024-01-30T01:30:55;8.70;99.90
19017;DHT22;9641;51.494;6.670;2024-01-30T01:33:25;8.70;99.90
19017;DHT22;9641;51.494;6.670;2024-01-30T01:35:52;8.70;99.90
19017;DHT22;9641;51.494;6.670;2024-01-30T01:38:19;8.80;99.90
19017;DHT22;9641;51.494;6.670;2024-01-30T01:40:46;8.80;99.90
19017;DHT22;9641;51.494;6.670;2024-01-30T01:43:13;8.80;99.90
19017;DHT22;9641;51.494;6.670;2024-01-30T01:45:41;8.80;99.90
19017;DHT22;9641;51.494;6.670;2024-01-30T01:48:08;8.80;99.90
19017;DHT22;9641;51.494;6.670;2024-01-30T01:50:36;8.80;99.90
19017;DHT22;9641;51.494;6.670;2024-01-30T01:53:04;8.80;99.90
19017;DHT22;9641;51.494;6.670;2024-01-30T01:55:31;8.70;99.90
19017;DHT22;9641;51.494;6.670;2024-01-30T01:57:59;8.70;99.90
19017;DHT22;9641;51.494;6.670;2024-01-30T02:00:26;8.70;99.90
19017;DHT22;9641;51.494;6.670;2024-01-30T02:02:55;8.70;99.90
19017;DHT22;9641;51.494;6.670;2024-01-30T02:05:23;8.70;99.90
19017;DHT22;9641;51.494;6.670;2024-01-30T02:07:50;8.70;99.90
19017;DHT22;9641;51.494;6.670;2024-01-30T02:10:17;8.70;99.90
19017;DHT22;9641;51.494;6.670;2024-01-30T02:12:47;8.70;99.90
19017;DHT22;9641;51.494;6.670;2024-01-30T02:15:14;8.70;99.90
19017;DHT22;9641;51.494;6.670;2024-01-30T02:17:41;8.60;99.90
19017;DHT22;9641;51.494;6.670;2024-01-30T02:20:11;8.60;99.90
19017;DHT22;9641;51.494;6.670;2024-01-30T02:22:40;8.60;99.90
19017;DHT22;9641;51.494;6.670;2024-01-30T02:25:08;8.60;99.90
19017;DHT22;9641;51.494;6.670;2024-01-30T02:27:35;8.60;99.90
19017;DHT22;9641;51.494;6.670;2024-01-30T02:30:02;8.60;99.90
19017;DHT22;9641;51.494;6.670;2024-01-30T02:32:29;8.60;99.90
19017;DHT22;9641;51.494;6.670;2024-01-30T02:34:56;8.60;99.90
19017;DHT22;9641;51.494;6.670;2024-01-30T02:37:22;8.60;99.90
19017;DHT22;9641;51.494;6.670;2024-01-30T02:39:51;8.60;99.90
19017;DHT22;9641;51.494;6.670;2024-01-30T02:42:18;8.60;99.90
19017;DHT22;9641;51.494;6.670;2024-01-30T02:44:45;8.60;99.90
19017;DHT22;9641;51.494;6.670;2024-01-30T02:47:12;8.60;99.90
19017;DHT22;9641;51.494;6.670;2024-01-30T02:49:39;8.60;99.90
19017;DHT22;9641;51.494;6.670;2024-01-30T02:52:06;8.50;99.90
19017;DHT22;9641;51.494;6.670;2024-01-30T02:54:33;8.50;99.90
19017;DHT22;9641;51.494;6.670;2024-01-30T02:57:01;8.50;99.90
19017;DHT22;9641;51.494;6.670;2024-01-30T02:59:28;8.50;99.90
19017;DHT22;9641;51.494;6.670;2024-01-30T03:01:58;8.60;99.90
19017;DHT22;9641;51.494;6.670;2024-01-30T03:04:27;8.60;99.90
19017;DHT22;9641;51.494;6.670;2024-01-30T03:06:55;8.50;99.90
19017;DHT22;9641;51.494;6.670;2024-01-30T03:09:22;8.50;99.90
19017;DHT22;9641;51.494;6.670;2024-01-30T03:11:49;8.50;99.90
19017;DHT22;9641;51.494;6.670;2024-01-30T03:14:17;8.50;99.90
19017;DHT22;9641;51.494;6.670;2024-01-30T03:16:44;8.50;99.90
19017;DHT22;9641;51.494;6.670;2024-01-30T03:19:11;8.50;99.90
19017;DHT22;9641;51.494;6.670;2024-01-30T03:21:38;8.50;99.90
19017;DHT22;9641;51.494;6.670;2024-01-30T03:24:05;8.50;99.90
19017;DHT22;9641;51.494;6.670;2024-01-30T03:26:32;8.50;99.90
19017;DHT22;9641;51.494;6.670;2024-01-30T03:28:59;8.50;99.90
19017;DHT22;9641;51.494;6.670;2024-01-30T03:31:27;8.50;99.90
19017;DHT22;9641;51.494;6.670;2024-01-30T03:33:54;8.40;99.90
19017;DHT22;9641;51.494;6.670;2024-01-30T03:36:21;8.40;99.90
19017;DHT22;9641;51.494;6.670;2024-01-30T03:38:48;8.40;99.90
19017;DHT22;9641;51.494;6.670;2024-01-30T03:41:15;8.30;99.90
19017;DHT22;9641;51.494;6.670;2024-01-30T03:43:41;8.40;99.90
19017;DHT22;9641;51.494;6.670;2024-01-30T03:46:08;8.30;99.90
19017;DHT22;9641;51.494;6.670;2024-01-30T03:48:37;8.30;99.90
19017;DHT22;9641;51.494;6.670;2024-01-30T03:51:05;8.30;99.90
19017;DHT22;9641;51.494;6.670;2024-01-30T03:53:32;8.30;99.90
19017;DHT22;9641;51.494;6.670;2024-01-30T03:55:58;8.30;99.90
19017;DHT22;9641;51.494;6.670;2024-01-30T03:58:25;8.30;99.90
19017;DHT22;9641;51.494;6.670;2024-01-30T04:00:52;8.30;99.90
19017;DHT22;9641;51.494;6.670;2024-01-30T04:03:19;8.30;99.90
19017;DHT22;9641;51.494;6.670;2024-01-30T04:05:47;8.30;99.90
19017;DHT22;9641;51.494;6.670;2024-01-30T04:08:14;8.30;99.90
19017;DHT22;9641;51.494;6.670;2024-01-30T04:10:41;8.30;99.90
19017;DHT22;9641;51.494;6.670;2024-01-30T04:13:08;8.30;99.90
19017;DHT22;9641;51.494;6.670;2024-01-30T04:15:35;8.30;99.90
19017;DHT22;9641;51.494;6.670;2024-01-30T04:18:02;8.20;99.90
19017;DHT22;9641;51.494;6.670;2024-01-30T04:20:29;8.30;99.90
19017;DHT22;9641;51.494;6.670;2024-01-30T04:22:58;8.20;99.90
19017;DHT22;9641;51.494;6.670;2024-01-30T04:25:25;8.30;99.90
19017;DHT22;9641;51.494;6.670;2024-01-30T04:27:51;8.30;99.90
19017;DHT22;9641;51.494;6.670;2024-01-30T04:30:18;8.20;99.90
19017;DHT22;9641;51.494;6.670;2024-01-30T04:32:45;8.20;99.90
19017;DHT22;9641;51.494;6.670;2024-01-30T04:35:12;8.20;99.90
19017;DHT22;9641;51.494;6.670;2024-01-30T04:37:39;8.20;99.90
19017;DHT22;9641;51.494;6.670;2024-01-30T04:40:08;8.20;99.90
19017;DHT22;9641;51.494;6.670;2024-01-30T04:42:35;8.20;99.90
19017;DHT22;9641;51.494;6.670;2024-01-30T04:45:02;8.20;99.90
19017;DHT22;9641;51.494;6.670;2024-01-30T04:47:29;8.20;99.90
19017;DHT22;9641;51.494;6.670;2024-01-30T04:49:56;8.20;99.90
19017;DHT22;9641;51.494;6.670;2024-01-30T04:52:23;8.20;99.90
19017;DHT22;9641;51.494;6.670;2024-01-30T04:54:50;8.30;99.90
19017;DHT22;9641;51.494;6.670;2024-01-30T04:57:19;8.30;99.90
19017;DHT22;9641;51.494;6.670;2024-01-30T04:59:45;8.30;99.90
19017;DHT22;9641;51.494;6.670;2024-01-30T05:02:12;8.30;99.90
19017;DHT22;9641;51.494;6.670;2024-01-30T05:04:40;8.30;99.90
19017;DHT22;9641;51.494;6.670;2024-01-30T05:07:07;8.40;99.90
19017;DHT22;9641;51.494;6.670;2024-01-30T05:09:34;8.40;99.90
19017;DHT22;9641;51.494;6.670;2024-01-30T05:12:01;8.40;99.90
19017;DHT22;9641;51.494;6.670;2024-01-30T05:14:30;8.40;99.90
19017;DHT22;9641;51.494;6.670;2024-01-30T05:16:57;8.40;99.90
19017;DHT22;9641;51.494;6.670;2024-01-30T05:19:24;8.40;99.90
19017;DHT22;9641;51.494;6.670;2024-01-30T05:21:51;8.40;99.90
19017;DHT22;9641;51.494;6.670;2024-01-30T05:24:18;8.40;99.90
19017;DHT22;9641;51.494;6.670;2024-01-30T05:26:45;8.50;99.90
19017;DHT22;9641;51.494;6.670;2024-01-30T05:29:13;8.50;99.90
19017;DHT22;9641;51.494;6.670;2024-01-30T05:31:42;8.50;99.90
19017;DHT22;9641;51.494;6.670;2024-01-30T05:34:09;8.50;99.90
19017;DHT22;9641;51.494;6.670;2024-01-30T05:36:35;8.50;99.90
19017;DHT22;9641;51.494;6.670;2024-01-30T05:39:02;8.50;99.90
19017;DHT22;9641;51.494;6.670;2024-01-30T05:41:30;8.50;99.90
19017;DHT22;9641;51.494;6.670;2024-01-30T05:43:57;8.50;99.90
19017;DHT22;9641;51.494;6.670;2024-01-30T05:46:23;8.50;99.90
19017;DHT22;9641;51.494;6.670;2024-01-30T05:48:52;8.40;99.90
19017;DHT22;9641;51.494;6.670;2024-01-30T05:51:19;8.40;99.90
19017;DHT22;9641;51.494;6.670;2024-01-30T05:53:46;8.50;99.90
19017;DHT22;9641;51.494;6.670;2024-01-30T05:56:13;8.50;99.90
19017;DHT22;9641;51.494;6.670;2024-01-30T05:58:41;8.50;99.90
19017;DHT22;9641;51.494;6.670;2024-01-30T06:01:08;8.50;99.90
19017;DHT22;9641;51.494;6.670;2024-01-30T06:03:35;8.50;99.90
19017;DHT22;9641;51.494;6.670;2024-01-30T06:06:04;8.50;99.90
19017;DHT22;9641;51.494;6.670;2024-01-30T06:08:31;8.50;99.90
19017;DHT22;9641;51.494;6.670;2024-01-30T06:10:59;8.50;99.90
19017;DHT22;9641;51.494;6.670;2024-01-30T06:13:26;8.50;99.90
19017;DHT22;9641;51.494;6.670;2024-01-30T06:15:53;8.50;99.90
19017;DHT22;9641;51.494;6.670;2024-01-30T06:18:20;8.50;99.90
19017;DHT22;9641;51.494;6.670;2024-01-30T06:20:47;8.50;99.90
19017;DHT22;9641;51.494;6.670;2024-01-30T06:23:16;8.50;99.90
19017;DHT22;9641;51.494;6.670;2024-01-30T06:25:43;8.60;99.90
19017;DHT22;9641;51.494;6.670;2024-01-30T06:28:17;8.60;99.90
19017;DHT22;9641;51.494;6.670;2024-01-30T06:30:45;8.60;99.90
19017;DHT22;9641;51.494;6.670;2024-01-30T06:33:13;8.60;99.90
19017;DHT22;9641;51.494;6.670;2024-01-30T06:36:00;8.60;99.90
19017;DHT22;9641;51.494;6.670;2024-01-30T06:38:29;8.60;99.90
19017;DHT22;9641;51.494;6.670;2024-01-30T06:40:59;8.60;99.90
19017;DHT22;9641;51.494;6.670;2024-01-30T06:43:27;8.60;99.90
19017;DHT22;9641;51.494;6.670;2024-01-30T06:45:54;8.60;99.90
19017;DHT22;9641;51.494;6.670;2024-01-30T06:48:23;8.60;99.90
19017;DHT22;9641;51.494;6.670;2024-01-30T06:50:50;8.60;99.90
19017;DHT22;9641;51.494;6.670;2024-01-30T06:53:17;8.60;99.90
19017;DHT22;9641;51.494;6.670;2024-01-30T06:55:46;8.60;99.90
19017;DHT22;9641;51.494;6.670;2024-01-30T06:58:13;8.50;99.90
19017;DHT22;9641;51.494;6.670;2024-01-30T07:00:41;8.50;99.90
19017;DHT22;9641;51.494;6.670;2024-01-30T07:03:14;8.60;99.90
19017;DHT22;9641;51.494;6.670;2024-01-30T07:05:45;8.60;99.90
19017;DHT22;9641;51.494;6.670;2024-01-30T07:08:13;8.60;99.90
19017;DHT22;9641;51.494;6.670;2024-01-30T07:14:02;8.60;99.90
19017;DHT22;9641;51.494;6.670;2024-01-30T07:16:30;8.60;99.90
19017;DHT22;9641;51.494;6.670;2024-01-30T07:18:58;8.60;99.90
19017;DHT22;9641;51.494;6.670;2024-01-30T07:21:25;8.70;99.90
19017;DHT22;9641;51.494;6.670;2024-01-30T07:23:54;8.70;99.90
19017;DHT22;9641;51.494;6.670;2024-01-30T07:26:21;8.70;99.90
19017;DHT22;9641;51.494;6.670;2024-01-30T07:28:48;8.70;99.90
19017;DHT22;9641;51.494;6.670;2024-01-30T07:31:17;8.80;99.90
19017;DHT22;9641;51.494;6.670;2024-01-30T07:33:46;8.80;99.90
19017;DHT22;9641;51.494;6.670;2024-01-30T07:36:13;8.80;99.90
19017;DHT22;9641;51.494;6.670;2024-01-30T07:38:41;8.90;99.90
19017;DHT22;9641;51.494;6.670;2024-01-30T07:41:08;8.90;99.90
19017;DHT22;9641;51.494;6.670;2024-01-30T07:46:57;8.90;99.90
19017;DHT22;9641;51.494;6.670;2024-01-30T07:49:30;8.90;99.90
19017;DHT22;9641;51.494;6.670;2024-01-30T07:58:37;8.90;99.90
19017;DHT22;9641;51.494;6.670;2024-01-30T08:01:04;9.00;99.90
19017;DHT22;9641;51.494;6.670;2024-01-30T08:03:33;9.00;99.90
19017;DHT22;9641;51.494;6.670;2024-01-30T08:06:01;9.00;99.90
19017;DHT22;9641;51.494;6.670;2024-01-30T08:08:29;9.10;99.90
19017;DHT22;9641;51.494;6.670;2024-01-30T08:11:27;9.10;99.90
19017;DHT22;9641;51.494;6.670;2024-01-30T08:13:57;9.10;99.90
19017;DHT22;9641;51.494;6.670;2024-01-30T08:16:26;9.10;99.90
19017;DHT22;9641;51.494;6.670;2024-01-30T08:19:08;9.20;99.90
19017;DHT22;9641;51.494;6.670;2024-01-30T08:21:36;9.20;99.90
19017;DHT22;9641;51.494;6.670;2024-01-30T08:24:04;9.20;99.90
19017;DHT22;9641;51.494;6.670;2024-01-30T08:26:33;9.30;99.90
19017;DHT22;9641;51.494;6.670;2024-01-30T08:29:01;9.30;99.90
19017;DHT22;9641;51.494;6.670;2024-01-30T08:31:28;9.40;99.90
19017;DHT22;9641;51.494;6.670;2024-01-30T08:33:56;9.40;99.90
19017;DHT22;9641;51.494;6.670;2024-01-30T08:36:25;9.40;99.90
19017;DHT22;9641;51.494;6.670;2024-01-30T08:38:52;9.50;99.90
19017;DHT22;9641;51.494;6.670;2024-01-30T08:41:22;9.50;99.90
19017;DHT22;9641;51.494;6.670;2024-01-30T08:43:52;9.50;99.90
19017;DHT22;9641;51.494;6.670;2024-01-30T08:46:39;9.50;99.90
19017;DHT22;9641;51.494;6.670;2024-01-30T08:49:08;9.60;99.90
19017;DHT22;9641;51.494;6.670;2024-01-30T08:51:36;9.60;99.90
19017;DHT22;9641;51.494;6.670;2024-01-30T08:54:06;9.60;99.90
19017;DHT22;9641;51.494;6.670;2024-01-30T08:56:51;9.60;99.90
19017;DHT22;9641;51.494;6.670;2024-01-30T08:59:19;9.70;99.90
19017;DHT22;9641;51.494;6.670;2024-01-30T09:01:46;9.70;99.90
19017;DHT22;9641;51.494;6.670;2024-01-30T09:04:13;9.70;99.90
19017;DHT22;9641;51.494;6.670;2024-01-30T09:06:42;9.70;99.90
19017;DHT22;9641;51.494;6.670;2024-01-30T09:09:09;9.70;99.90
19017;DHT22;9641;51.494;6.670;2024-01-30T09:11:36;9.70;99.90
19017;DHT22;9641;51.494;6.670;2024-01-30T09:14:03;9.70;99.90
19017;DHT22;9641;51.494;6.670;2024-01-30T09:16:30;9.80;99.90
19017;DHT22;9641;51.494;6.670;2024-01-30T09:18:57;9.80;99.90
19017;DHT22;9641;51.494;6.670;2024-01-30T09:21:25;9.90;99.90
19017;DHT22;9641;51.494;6.670;2024-01-30T09:23:54;9.90;99.90
19017;DHT22;9641;51.494;6.670;2024-01-30T09:26:21;10.00;99.90
19017;DHT22;9641;51.494;6.670;2024-01-30T09:28:48;10.00;99.90
19017;DHT22;9641;51.494;6.670;2024-01-30T09:31:16;10.10;99.90
19017;DHT22;9641;51.494;6.670;2024-01-30T09:33:43;10.20;99.90
19017;DHT22;9641;51.494;6.670;2024-01-30T09:36:13;10.20;99.90
19017;DHT22;9641;51.494;6.670;2024-01-30T09:38:44;10.30;99.90
19017;DHT22;9641;51.494;6.670;2024-01-30T09:41:12;10.40;99.90
19017;DHT22;9641;51.494;6.670;2024-01-30T09:43:40;10.40;99.90
19017;DHT22;9641;51.494;6.670;2024-01-30T09:46:12;10.50;99.90
19017;DHT22;9641;51.494;6.670;2024-01-30T09:48:53;10.50;99.90
19017;DHT22;9641;51.494;6.670;2024-01-30T09:51:21;10.60;99.90
19017;DHT22;9641;51.494;6.670;2024-01-30T09:53:49;10.70;99.90
19017;DHT22;9641;51.494;6.670;2024-01-30T09:56:18;10.80;99.90
19017;DHT22;9641;51.494;6.670;2024-01-30T09:58:46;10.90;99.90
19017;DHT22;9641;51.494;6.670;2024-01-30T10:01:15;11.00;99.90
19017;DHT22;9641;51.494;6.670;2024-01-30T10:03:44;11.10;99.90
19017;DHT22;9641;51.494;6.670;2024-01-30T10:06:12;11.20;99.90
19017;DHT22;9641;51.494;6.670;2024-01-30T10:08:39;11.20;91.00
19017;DHT22;9641;51.494;6.670;2024-01-30T10:11:06;11.20;40.30
19017;DHT22;9641;51.494;6.670;2024-01-30T10:13:35;11.20;73.80
19017;DHT22;9641;51.494;6.670;2024-01-30T10:16:03;11.10;99.90
19017;DHT22;9641;51.494;6.670;2024-01-30T10:18:32;11.10;99.90
19017;DHT22;9641;51.494;6.670;2024-01-30T10:21:02;11.10;99.90
19017;DHT22;9641;51.494;6.670;2024-01-30T10:23:31;11.10;99.90
19017;DHT22;9641;51.494;6.670;2024-01-30T10:25:58;11.10;99.90
19017;DHT22;9641;51.494;6.670;2024-01-30T10:28:27;11.20;99.90
19017;DHT22;9641;51.494;6.670;2024-01-30T10:31:01;11.20;99.90
19017;DHT22;9641;51.494;6.670;2024-01-30T10:33:33;11.20;99.90
19017;DHT22;9641;51.494;6.670;2024-01-30T10:36:02;11.30;99.90
19017;DHT22;9641;51.494;6.670;2024-01-30T10:38:33;11.40;58.10
19017;DHT22;9641;51.494;6.670;2024-01-30T10:41:13;11.50;24.40
19017;DHT22;9641;51.494;6.670;2024-01-30T10:43:47;11.60;10.80
19017;DHT22;9641;51.494;6.670;2024-01-30T10:46:20;11.50;25.80
19017;DHT22;9641;51.494;6.670;2024-01-30T10:48:55;11.60;50.70
19017;DHT22;9641;51.494;6.670;2024-01-30T10:51:27;11.60;35.70
19017;DHT22;9641;51.494;6.670;2024-01-30T10:53:56;11.50;69.70
19017;DHT22;9641;51.494;6.670;2024-01-30T10:56:24;11.60;55.30
19017;DHT22;9641;51.494;6.670;2024-01-30T10:58:52;11.60;73.00
19017;DHT22;9641;51.494;6.670;2024-01-30T11:01:23;11.70;25.70
19017;DHT22;9641;51.494;6.670;2024-01-30T11:03:51;11.60;43.30
19017;DHT22;9641;51.494;6.670;2024-01-30T11:06:19;11.70;66.50
19017;DHT22;9641;51.494;6.670;2024-01-30T11:09:00;11.70;43.40
19017;DHT22;9641;51.494;6.670;2024-01-30T11:11:30;11.70;58.50
19017;DHT22;9641;51.494;6.670;2024-01-30T11:14:00;11.80;77.20
19017;DHT22;9641;51.494;6.670;2024-01-30T11:16:32;11.80;77.40
19017;DHT22;9641;51.494;6.670;2024-01-30T11:19:00;11.70;99.90
19017;DHT22;9641;51.494;6.670;2024-01-30T11:21:28;11.80;99.90
19017;DHT22;9641;51.494;6.670;2024-01-30T11:23:57;11.80;99.90
19017;DHT22;9641;51.494;6.670;2024-01-30T11:26:27;11.90;97.40
19017;DHT22;9641;51.494;6.670;2024-01-30T11:28:55;12.00;64.00
19017;DHT22;9641;51.494;6.670;2024-01-30T11:31:23;12.00;53.20
19017;DHT22;9641;51.494;6.670;2024-01-30T11:33:55;11.90;91.10
19017;DHT22;9641;51.494;6.670;2024-01-30T11:36:25;11.80;99.90
19017;DHT22;9641;51.494;6.670;2024-01-30T11:38:56;11.80;99.90
19017;DHT22;9641;51.494;6.670;2024-01-30T11:41:23;11.80;99.90
19017;DHT22;9641;51.494;6.670;2024-01-30T11:43:52;11.80;99.90
19017;DHT22;9641;51.494;6.670;2024-01-30T11:46:24;11.90;99.90
19017;DHT22;9641;51.494;6.670;2024-01-30T11:48:54;11.90;99.90
19017;DHT22;9641;51.494;6.670;2024-01-30T11:51:21;11.90;99.90
19017;DHT22;9641;51.494;6.670;2024-01-30T11:53:54;11.80;99.90
19017;DHT22;9641;51.494;6.670;2024-01-30T11:56:24;11.80;99.90
19017;DHT22;9641;51.494;6.670;2024-01-30T11:58:52;11.80;99.90
19017;DHT22;9641;51.494;6.670;2024-01-30T12:01:19;11.80;99.90
19017;DHT22;9641;51.494;6.670;2024-01-30T12:03:49;11.80;99.90
19017;DHT22;9641;51.494;6.670;2024-01-30T12:06:18;11.90;99.90
19017;DHT22;9641;51.494;6.670;2024-01-30T12:08:56;11.90;99.90
19017;DHT22;9641;51.494;6.670;2024-01-30T12:11:24;11.90;99.90
19017;DHT22;9641;51.494;6.670;2024-01-30T12:13:53;11.90;99.90
19017;DHT22;9641;51.494;6.670;2024-01-30T12:16:21;11.90;99.90
19017;DHT22;9641;51.494;6.670;2024-01-30T12:18:49;11.90;99.90
19017;DHT22;9641;51.494;6.670;2024-01-30T12:21:18;12.00;99.90
19017;DHT22;9641;51.494;6.670;2024-01-30T12:23:45;12.00;99.90
19017;DHT22;9641;51.494;6.670;2024-01-30T12:26:14;12.00;99.90
19017;DHT22;9641;51.494;6.670;2024-01-30T12:28:48;12.00;99.90
19017;DHT22;9641;51.494;6.670;2024-01-30T12:31:16;12.10;99.90
19017;DHT22;9641;51.494;6.670;2024-01-30T12:33:43;12.00;99.90
19017;DHT22;9641;51.494;6.670;2024-01-30T12:36:11;12.00;99.90
19017;DHT22;9641;51.494;6.670;2024-01-30T12:38:40;12.10;99.90
19017;DHT22;9641;51.494;6.670;2024-01-30T12:41:08;12.00;99.90
19017;DHT22;9641;51.494;6.670;2024-01-30T12:43:36;12.10;99.90
19017;DHT22;9641;51.494;6.670;2024-01-30T12:46:03;12.10;99.90
19017;DHT22;9641;51.494;6.670;2024-01-30T12:48:31;12.20;99.90
19017;DHT22;9641;51.494;6.670;2024-01-30T12:50:59;12.20;99.90
19017;DHT22;9641;51.494;6.670;2024-01-30T12:53:26;12.20;99.90
19017;DHT22;9641;51.494;6.670;2024-01-30T12:55:58;12.20;99.90
19017;DHT22;9641;51.494;6.670;2024-01-30T12:58:26;12.30;99.90
19017;DHT22;9641;51.494;6.670;2024-01-30T13:00:54;12.40;99.90
19017;DHT22;9641;51.494;6.670;2024-01-30T13:03:22;12.50;99.90
19017;DHT22;9641;51.494;6.670;2024-01-30T13:05:50;12.50;99.90
19017;DHT22;9641;51.494;6.670;2024-01-30T13:08:17;12.50;99.90
19017;DHT22;9641;51.494;6.670;2024-01-30T13:10:45;12.60;99.90
19017;DHT22;9641;51.494;6.670;2024-01-30T13:13:13;12.60;99.90
19017;DHT22;9641;51.494;6.670;2024-01-30T13:15:41;12.60;99.90
19017;DHT22;9641;51.494;6.670;2024-01-30T13:18:14;12.60;99.90
19017;DHT22;9641;51.494;6.670;2024-01-30T13:20:42;12.60;99.90
19017;DHT22;9641;51.494;6.670;2024-01-30T13:23:09;12.70;99.90
19017;DHT22;9641;51.494;6.670;2024-01-30T13:25:36;12.70;99.90
19017;DHT22;9641;51.494;6.670;2024-01-30T13:28:04;12.60;99.90
19017;DHT22;9641;51.494;6.670;2024-01-30T13:30:32;12.60;99.90
19017;DHT22;9641;51.494;6.670;2024-01-30T13:32:59;12.60;99.90
19017;DHT22;9641;51.494;6.670;2024-01-30T13:35:26;12.60;99.90
19017;DHT22;9641;51.494;6.670;2024-01-30T13:37:53;12.60;99.90
19017;DHT22;9641;51.494;6.670;2024-01-30T13:40:21;12.50;99.90
19017;DHT22;9641;51.494;6.670;2024-01-30T13:42:48;12.50;99.90
19017;DHT22;9641;51.494;6.670;2024-01-30T13:45:16;12.50;99.90
19017;DHT22;9641;51.494;6.670;2024-01-30T13:47:45;12.50;99.90
19017;DHT22;9641;51.494;6.670;2024-01-30T13:50:12;12.50;99.90
19017;DHT22;9641;51.494;6.670;2024-01-30T13:52:41;12.50;99.90
19017;DHT22;9641;51.494;6.670;2024-01-30T13:55:08;12.50;99.90
19017;DHT22;9641;51.494;6.670;2024-01-30T13:57:35;12.50;99.90
19017;DHT22;9641;51.494;6.670;2024-01-30T14:00:03;12.50;99.90
19017;DHT22;9641;51.494;6.670;2024-01-30T14:02:38;12.60;99.90
19017;DHT22;9641;51.494;6.670;2024-01-30T14:05:07;12.60;99.90
19017;DHT22;9641;51.494;6.670;2024-01-30T14:07:38;12.70;99.90
19017;DHT22;9641;51.494;6.670;2024-01-30T14:10:06;12.70;99.90
19017;DHT22;9641;51.494;6.670;2024-01-30T14:12:34;12.70;99.90
19017;DHT22;9641;51.494;6.670;2024-01-30T14:15:04;12.80;99.90
19017;DHT22;9641;51.494;6.670;2024-01-30T14:17:31;12.90;99.90
19017;DHT22;9641;51.494;6.670;2024-01-30T14:19:59;12.90;94.20
19017;DHT22;9641;51.494;6.670;2024-01-30T14:22:28;12.90;96.70
19017;DHT22;9641;51.494;6.670;2024-01-30T14:24:56;12.80;97.90
19017;DHT22;9641;51.494;6.670;2024-01-30T14:27:23;12.70;59.70
19017;DHT22;9641;51.494;6.670;2024-01-30T14:29:50;12.60;10.00
19017;DHT22;9641;51.494;6.670;2024-01-30T14:32:17;12.40;1.00
19017;DHT22;9641;51.494;6.670;2024-01-30T14:34:44;12.30;1.00
19017;DHT22;9641;51.494;6.670;2024-01-30T14:37:11;12.20;1.00
19017;DHT22;9641;51.494;6.670;2024-01-30T14:39:40;12.10;1.00
19017;DHT22;9641;51.494;6.670;2024-01-30T14:42:07;12.10;1.00
19017;DHT22;9641;51.494;6.670;2024-01-30T14:44:35;12.20;1.00
19017;DHT22;9641;51.494;6.670;2024-01-30T14:47:02;12.20;99.90
19017;DHT22;9641;51.494;6.670;2024-01-30T14:49:30;12.30;99.90
19017;DHT22;9641;51.494;6.670;2024-01-30T14:51:57;12.40;99.90
19017;DHT22;9641;51.494;6.670;2024-01-30T14:54:26;13.00;34.40
19017;DHT22;9641;51.494;6.670;2024-01-30T14:56:54;13.60;99.90
19017;DHT22;9641;51.494;6.670;2024-01-30T14:59:21;14.40;1.00
19017;DHT22;9641;51.494;6.670;2024-01-30T15:01:48;14.90;1.00
19017;DHT22;9641;51.494;6.670;2024-01-30T15:04:15;15.40;1.00
19017;DHT22;9641;51.494;6.670;2024-01-30T15:06:42;16.10;1.00
19017;DHT22;9641;51.494;6.670;2024-01-30T15:09:11;16.80;99.90
19017;DHT22;9641;51.494;6.670;2024-01-30T15:11:40;16.90;1.00
19017;DHT22;9641;51.494;6.670;2024-01-30T15:14:08;16.60;1.00
19017;DHT22;9641;51.494;6.670;2024-01-30T15:16:36;15.60;63.20
19017;DHT22;9641;51.494;6.670;2024-01-30T15:19:06;14.80;1.00
19017;DHT22;9641;51.494;6.670;2024-01-30T15:32:57;12.40;99.90
19017;DHT22;9641;51.494;6.670;2024-01-30T15:35:25;12.10;12.80
19017;DHT22;9641;51.494;6.670;2024-01-30T15:37:52;12.10;1.00
19017;DHT22;9641;51.494;6.670;2024-01-30T15:40:19;12.00;1.00
19017;DHT22;9641;51.494;6.670;2024-01-30T15:42:46;11.80;99.90
19017;DHT22;9641;51.494;6.670;2024-01-30T15:45:15;11.70;1.00
19017;DHT22;9641;51.494;6.670;2024-01-30T15:47:42;11.50;99.90
19017;DHT22;9641;51.494;6.670;2024-01-30T15:50:12;11.50;1.00
19017;DHT22;9641;51.494;6.670;2024-01-30T15:52:39;11.40;99.90
19017;DHT22;9641;51.494;6.670;2024-01-30T15:55:06;11.30;99.90
19017;DHT22;9641;51.494;6.670;2024-01-30T15:57:36;11.30;99.90
19017;DHT22;9641;51.494;6.670;2024-01-30T16:00:05;11.20;1.00
19017;DHT22;9641;51.494;6.670;2024-01-30T16:02:37;11.20;1.00
19017;DHT22;9641;51.494;6.670;2024-01-30T16:05:04;11.20;1.00
19017;DHT22;9641;51.494;6.670;2024-01-30T16:07:34;11.20;1.00
19017;DHT22;9641;51.494;6.670;2024-01-30T16:10:02;11.20;99.90
19017;DHT22;9641;51.494;6.670;2024-01-30T16:12:29;11.20;99.90
19017;DHT22;9641;51.494;6.670;2024-01-30T16:14:57;11.20;1.00
19017;DHT22;9641;51.494;6.670;2024-01-30T16:17:24;11.20;1.00
19017;DHT22;9641;51.494;6.670;2024-01-30T16:19:52;11.20;1.00
19017;DHT22;9641;51.494;6.670;2024-01-30T16:22:25;11.20;1.00
19017;DHT22;9641;51.494;6.670;2024-01-30T16:24:54;11.30;1.00
19017;DHT22;9641;51.494;6.670;2024-01-30T16:27:22;11.20;1.00
19017;DHT22;9641;51.494;6.670;2024-01-30T16:29:52;11.20;1.00